Time;durP1;ratioP1;P1;durP2;ratioP2;P2;SDS_P1;SDS_P2;PMS_P1;PMS_P2;Temp;Humidity;BMP_temperature;BMP_pressure;BME280_temperature;BME280_humidity;BME280_pressure;Samples;Min_cycle;Max_cycle;Signal;HPM_P1;HPM_P2
2023/09/14 00:00:29;;;;;;;7.82;2.55;;;;;;;;;;4928059;29;20052;-78
2023/09/14 00:02:55;;;;;;;9.30;2.65;;;;;;;;;;4908563;29;20540;-78
2023/09/14 00:05:21;;;;;;;8.52;2.95;;;;;;;;;;4926991;29;20522;-77
2023/09/14 00:07:47;;;;;;;29.08;3.15;;;;;;;;;;4924133;29;20408;-77
2023/09/14 00:10:14;;;;;;;17.25;2.03;;;;;;;;;;4926750;29;20562;-77
2023/09/14 00:12:40;;;;;;;25.38;2.42;;;;;;;;;;4900977;29;20047;-77
2023/09/14 00:15:06;;;;;;;89.15;4.30;;;;;;;;;;4923450;29;20531;-77
2023/09/14 00:17:32;;;;;;;6.95;2.30;;;;;;;;;;4927517;29;20490;-76
2023/09/14 00:19:58;;;;;;;;;;;;;;;;;;4929574;29;20490;-78
2023/09/14 00:22:24;;;;;;;6.50;2.25;;;;;;;;;;4910673;29;20027;-77
2023/09/14 00:24:50;;;;;;;6.32;2.50;;;;;;;;;;4924341;29;20050;-77
2023/09/14 00:27:16;;;;;;;7.80;2.33;;;;;;;;;;4910982;29;20055;-77
2023/09/14 00:29:42;;;;;;;;;;;;;;;;;;4931609;29;20048;-77
2023/09/14 00:32:08;;;;;;;7.22;2.50;;;;;;;;;;4922894;29;19923;-77
2023/09/14 00:34:34;;;;;;;;;;;;;;;;;;4901714;29;20083;-77
2023/09/14 00:37:00;;;;;;;8.75;2.33;;;;;;;;;;4923745;29;19961;-79
2023/09/14 00:39:26;;;;;;;;;;;;;;;;;;4916941;29;20089;-77
2023/09/14 00:41:52;;;;;;;6.55;2.40;;;;;;;;;;4933204;29;19950;-77
2023/09/14 00:44:18;;;;;;;5.70;2.40;;;;;;;;;;4913872;29;20301;-77
2023/09/14 00:46:45;;;;;;;4.57;2.20;;;;;;;;;;4906823;29;20430;-77
2023/09/14 00:49:11;;;;;;;6.57;2.63;;;;;;;;;;4899376;29;20064;-77
2023/09/14 00:51:37;;;;;;;6.70;2.53;;;;;;;;;;4931384;29;20107;-77
2023/09/14 00:54:04;;;;;;;9.82;2.90;;;;;;;;;;4926722;29;20063;-77
2023/09/14 00:56:31;;;;;;;10.65;3.22;;;;;;;;;;4921338;29;20052;-77
2023/09/14 00:58:57;;;;;;;7.63;3.22;;;;;;;;;;4926098;29;20096;-77
2023/09/14 01:01:23;;;;;;;11.57;3.55;;;;;;;;;;4916490;29;20501;-78
2023/09/14 01:03:50;;;;;;;8.48;2.75;;;;;;;;;;4908553;29;20082;-78
2023/09/14 01:06:16;;;;;;;6.60;2.88;;;;;;;;;;4908075;29;20044;-77
2023/09/14 01:08:42;;;;;;;;;;;;;;;;;;4917533;29;20063;-77
2023/09/14 01:11:08;;;;;;;6.07;2.67;;;;;;;;;;4913553;29;19923;-77
2023/09/14 01:13:34;;;;;;;;;;;;;;;;;;4931927;29;20055;-77
2023/09/14 01:16:11;;;;;;;9.52;3.03;;;;;;;;;;4933021;29;19923;-78
2023/09/14 01:18:41;;;;;;;5.97;2.90;;;;;;;;;;4933246;29;20139;-77
2023/09/14 01:21:07;;;;;;;7.55;2.90;;;;;;;;;;4933282;29;20437;-77
2023/09/14 01:23:52;;;;;;;6.25;3.00;;;;;;;;;;4933753;29;20382;-77
2023/09/14 01:26:18;;;;;;;9.52;3.13;;;;;;;;;;4930553;29;20055;-77
2023/09/14 01:28:44;;;;;;;7.38;2.90;;;;;;;;;;4902536;29;20454;-77
2023/09/14 01:31:10;;;;;;;;;;;;;;;;;;4914062;29;20071;-77
2023/09/14 01:33:37;;;;;;;89.55;5.20;;;;;;;;;;4929014;29;19926;-77
2023/09/14 01:36:08;;;;;;;71.38;4.53;;;;;;;;;;4921515;29;20040;-79
2023/09/14 01:38:34;;;;;;;147.93;6.32;;;;;;;;;;4933713;29;20043;-77
2023/09/14 01:41:02;;;;;;;185.70;9.18;;;;;;;;;;4914357;29;20063;-77
2023/09/14 01:43:28;;;;;;;181.45;9.20;;;;;;;;;;4942826;29;20056;-77
2023/09/14 01:45:55;;;;;;;54.10;4.05;;;;;;;;;;4936135;29;20086;-77
2023/09/14 01:48:23;;;;;;;22.80;2.95;;;;;;;;;;4920998;29;20055;-77
2023/09/14 01:50:49;;;;;;;15.27;2.40;;;;;;;;;;4931171;29;20511;-77
2023/09/14 01:53:15;;;;;;;8.80;1.63;;;;;;;;;;4918980;29;20051;-77
2023/09/14 01:55:41;;;;;;;3.80;1.77;;;;;;;;;;4936568;29;20107;-77
2023/09/14 01:58:09;;;;;;;86.18;3.78;;;;;;;;;;4934894;29;20042;-79
2023/09/14 02:00:35;;;;;;;94.28;4.47;;;;;;;;;;4917475;29;20079;-77
2023/09/14 02:03:01;;;;;;;27.33;2.00;;;;;;;;;;4917596;29;20046;-77
2023/09/14 02:05:27;;;;;;;6.10;1.17;;;;;;;;;;4920902;29;20043;-77
2023/09/14 02:07:53;;;;;;;;;;;;;;;;;;4920574;29;20048;-76
2023/09/14 02:10:21;;;;;;;5.47;1.25;;;;;;;;;;4935006;29;20387;-77
2023/09/14 02:12:48;;;;;;;1.75;1.40;;;;;;;;;;4920934;29;20047;-76
2023/09/14 02:15:14;;;;;;;3.38;1.20;;;;;;;;;;4932066;29;20055;-77
2023/09/14 02:17:40;;;;;;;3.92;1.42;;;;;;;;;;4917626;29;20134;-77
2023/09/14 02:20:08;;;;;;;5.78;1.83;;;;;;;;;;4917910;29;20044;-77
2023/09/14 02:22:34;;;;;;;11.80;1.63;;;;;;;;;;4917002;29;20055;-77
2023/09/14 02:25:00;;;;;;;;;;;;;;;;;;4905616;29;20055;-77
2023/09/14 02:27:26;;;;;;;8.35;1.60;;;;;;;;;;4935796;29;19927;-77
2023/09/14 02:29:56;;;;;;;4.93;1.60;;;;;;;;;;4935111;29;20135;-78
2023/09/14 02:32:22;;;;;;;2.50;1.67;;;;;;;;;;4919757;29;20104;-77
2023/09/14 02:34:48;;;;;;;;;;;;;;;;;;4904953;29;20486;-76
2023/09/14 02:37:14;;;;;;;1.88;1.40;;;;;;;;;;4917048;29;19923;-77
2023/09/14 02:39:41;;;;;;;3.92;1.90;;;;;;;;;;4928590;29;20048;-77
2023/09/14 02:42:07;;;;;;;5.18;2.45;;;;;;;;;;4919949;29;20056;-77
2023/09/14 02:44:33;;;;;;;6.80;2.45;;;;;;;;;;4935229;29;20050;-77
2023/09/14 02:46:59;;;;;;;;;;;;;;;;;;4915596;29;20153;-77
2023/09/14 02:49:25;;;;;;;8.52;2.42;;;;;;;;;;4935818;29;20423;-77
2023/09/14 02:51:51;;;;;;;4.72;2.45;;;;;;;;;;4912518;29;20075;-76
2023/09/14 02:54:18;;;;;;;5.57;2.80;;;;;;;;;;4933996;29;20056;-77
2023/09/14 02:56:44;;;;;;;11.02;2.70;;;;;;;;;;4935819;29;20052;-77
2023/09/14 02:59:10;;;;;;;6.68;3.00;;;;;;;;;;4902921;29;20048;-77
2023/09/14 03:01:37;;;;;;;;;;;;;;;;;;4934309;29;20183;-77
2023/09/14 03:04:03;;;;;;;5.80;2.37;;;;;;;;;;4926145;29;19923;-77
2023/09/14 03:06:29;;;;;;;4.63;2.47;;;;;;;;;;4907548;29;20059;-77
2023/09/14 03:08:55;;;;;;;8.15;2.50;;;;;;;;;;4917036;29;20061;-77
2023/09/14 03:11:21;;;;;;;8.05;2.40;;;;;;;;;;4916383;29;20055;-77
2023/09/14 03:13:47;;;;;;;5.95;2.55;;;;;;;;;;4917676;29;20493;-77
2023/09/14 03:16:13;;;;;;;;;;;;;;;;;;4917790;29;20044;-79
2023/09/14 03:18:39;;;;;;;6.47;2.40;;;;;;;;;;4924978;29;19969;-76
2023/09/14 03:21:06;;;;;;;9.23;2.50;;;;;;;;;;4910105;29;20044;-76
2023/09/14 03:23:32;;;;;;;;;;;;;;;;;;4923223;29;20184;-77
2023/09/14 03:25:58;;;;;;;4.25;2.53;;;;;;;;;;4935499;29;19996;-77
2023/09/14 03:28:24;;;;;;;5.35;2.40;;;;;;;;;;4914618;29;20052;-77
2023/09/14 03:30:50;;;;;;;7.47;2.28;;;;;;;;;;4933658;29;20058;-77
2023/09/14 03:33:16;;;;;;;7.68;2.03;;;;;;;;;;4922418;29;20158;-76
2023/09/14 03:35:42;;;;;;;6.05;2.28;;;;;;;;;;4914734;29;20044;-75
2023/09/14 03:38:08;;;;;;;5.78;2.00;;;;;;;;;;4931161;29;20063;-75
2023/09/14 03:40:34;;;;;;;4.60;1.60;;;;;;;;;;4918350;29;20043;-75
2023/09/14 03:43:00;;;;;;;5.95;2.10;;;;;;;;;;4935101;29;20079;-75
2023/09/14 03:45:26;;;;;;;4.00;1.65;;;;;;;;;;4915882;29;20103;-75
2023/09/14 03:47:54;;;;;;;2.78;1.40;;;;;;;;;;4917057;29;20052;-75
2023/09/14 03:50:20;;;;;;;10.52;1.75;;;;;;;;;;4918259;29;20073;-76
2023/09/14 03:52:46;;;;;;;;;;;;;;;;;;4930480;29;20147;-75
2023/09/14 03:55:12;;;;;;;3.70;1.25;;;;;;;;;;4934502;29;20027;-75
2023/09/14 03:57:38;;;;;;;2.10;1.38;;;;;;;;;;4929019;29;20062;-75
2023/09/14 04:00:11;;;;;;;;;;;;;;;;;;4915415;29;20577;-75
2023/09/14 04:02:37;;;;;;;13.15;1.88;;;;;;;;;;4912722;29;19929;-75
2023/09/14 04:05:03;;;;;;;;;;;;;;;;;;4918779;29;20409;-77
2023/09/14 04:07:29;;;;;;;4.13;1.73;;;;;;;;;;4904569;29;19923;-75
2023/09/14 04:09:55;;;;;;;5.07;2.10;;;;;;;;;;4910399;29;20394;-75
2023/09/14 04:12:21;;;;;;;5.82;2.00;;;;;;;;;;4933720;29;20580;-77
2023/09/14 04:14:47;;;;;;;3.65;1.90;;;;;;;;;;4933807;29;20047;-74
2023/09/14 04:17:13;;;;;;;;;;;;;;;;;;4918733;29;20055;-75
2023/09/14 04:19:43;;;;;;;4.15;1.95;;;;;;;;;;4916971;29;19922;-75
2023/09/14 04:22:09;;;;;;;5.60;2.35;;;;;;;;;;4909224;29;20083;-75
2023/09/14 04:24:35;;;;;;;8.77;2.60;;;;;;;;;;4905991;29;20075;-75
2023/09/14 04:27:01;;;;;;;4.88;2.15;;;;;;;;;;4934500;29;20051;-76
2023/09/14 04:29:27;;;;;;;9.63;2.20;;;;;;;;;;4901990;29;20048;-75
2023/09/14 04:31:56;;;;;;;8.88;2.10;;;;;;;;;;4932875;29;20118;-75
2023/09/14 04:34:22;;;;;;;3.85;2.22;;;;;;;;;;4906550;29;20052;-76
2023/09/14 04:36:48;;;;;;;8.95;2.20;;;;;;;;;;4912789;29;20098;-75
2023/09/14 04:39:15;;;;;;;5.70;2.15;;;;;;;;;;4931540;29;20051;-75
2023/09/14 04:41:41;;;;;;;6.05;2.13;;;;;;;;;;4933796;29;20103;-74
2023/09/14 04:44:07;;;;;;;5.55;2.17;;;;;;;;;;4917864;29;20059;-74
2023/09/14 04:46:33;;;;;;;7.03;2.40;;;;;;;;;;4918152;29;20055;-75
2023/09/14 04:48:59;;;;;;;7.82;2.45;;;;;;;;;;4902350;29;20062;-75
2023/09/14 04:51:25;;;;;;;94.28;5.13;;;;;;;;;;4898463;29;20063;-76
2023/09/14 04:53:51;;;;;;;207.48;12.38;;;;;;;;;;4914979;29;20529;-75
2023/09/14 04:56:17;;;;;;;;;;;;;;;;;;4917215;29;20083;-75
2023/09/14 04:58:43;;;;;;;224.32;10.43;;;;;;;;;;4897831;29;19977;-75
2023/09/14 05:01:09;;;;;;;12.15;2.05;;;;;;;;;;4914326;29;20506;-75
2023/09/14 05:03:35;;;;;;;55.63;3.35;;;;;;;;;;4899089;29;20454;-75
2023/09/14 05:06:02;;;;;;;;;;;;;;;;;;4901691;29;20040;-75
2023/09/14 05:08:28;;;;;;;70.65;3.47;;;;;;;;;;4898949;29;19923;-76
2023/09/14 05:10:54;;;;;;;;;;;;;;;;;;4899483;29;20059;-75
2023/09/14 05:13:20;;;;;;;8.13;1.27;;;;;;;;;;4929433;29;20018;-75
2023/09/14 05:15:46;;;;;;;;;;;;;;;;;;4897627;29;20052;-74
2023/09/14 05:18:12;;;;;;;6.03;2.40;;;;;;;;;;4916638;29;20324;-75
2023/09/14 05:20:42;;;;;;;7.80;3.08;;;;;;;;;;4928663;29;20056;-75
2023/09/14 05:23:09;;;;;;;8.57;3.00;;;;;;;;;;4917894;29;20055;-77
2023/09/14 05:25:35;;;;;;;6.07;3.00;;;;;;;;;;4916723;29;20048;-77
2023/09/14 05:28:01;;;;;;;;;;;;;;;;;;4916397;29;20063;-77
2023/09/14 05:30:27;;;;;;;5.85;3.10;;;;;;;;;;4931352;29;19941;-77
2023/09/14 05:32:53;;;;;;;;;;;;;;;;;;4916728;29;20089;-77
2023/09/14 05:35:19;;;;;;;7.70;3.35;;;;;;;;;;4916636;29;19923;-77
2023/09/14 05:37:45;;;;;;;6.72;3.20;;;;;;;;;;4916055;29;20674;-77
2023/09/14 05:40:12;;;;;;;7.97;3.13;;;;;;;;;;4914433;29;20178;-76
2023/09/14 05:42:38;;;;;;;11.68;3.20;;;;;;;;;;4898056;29;20056;-76
2023/09/14 05:45:08;;;;;;;9.05;3.75;;;;;;;;;;4900221;29;20062;-77
2023/09/14 05:47:34;;;;;;;9.10;3.60;;;;;;;;;;4920002;29;20056;-79
2023/09/14 05:50:00;;;;;;;9.35;3.90;;;;;;;;;;4901760;29;20087;-77
2023/09/14 05:52:27;;;;;;;;;;;;;;;;;;4916310;29;20493;-77
2023/09/14 05:54:53;;;;;;;9.60;3.78;;;;;;;;;;4933013;29;20368;-75
2023/09/14 05:57:19;;;;;;;;;;;;;;;;;;4930112;29;20075;-75
2023/09/14 05:59:46;;;;;;;7.72;2.15;;;;;;;;;;4923593;29;19973;-74
2023/09/14 06:02:12;;;;;;;4.20;1.90;;;;;;;;;;4916364;29;20067;-75
2023/09/14 06:04:38;;;;;;;11.43;4.53;;;;;;;;;;4901165;29;20044;-75
2023/09/14 06:07:04;;;;;;;9.10;4.88;;;;;;;;;;4914526;29;20130;-75
2023/09/14 06:09:30;;;;;;;12.07;4.32;;;;;;;;;;4916422;29;20060;-74
2023/09/14 06:11:56;;;;;;;10.50;5.05;;;;;;;;;;4932682;29;20244;-75
2023/09/14 06:14:22;;;;;;;;;;;;;;;;;;4923787;29;20055;-74
2023/09/14 06:16:48;;;;;;;10.60;4.57;;;;;;;;;;4912876;29;19923;-75
2023/09/14 06:19:14;;;;;;;6.45;3.13;;;;;;;;;;4922719;29;20039;-75
2023/09/14 06:21:40;;;;;;;6.90;2.88;;;;;;;;;;4920133;29;20048;-75
2023/09/14 06:24:07;;;;;;;;;;;;;;;;;;4918389;29;20130;-73
2023/09/14 06:26:34;;;;;;;9.88;3.88;;;;;;;;;;4932641;29;19946;-74
2023/09/14 06:29:00;;;;;;;11.88;4.57;;;;;;;;;;4925559;29;20048;-75
2023/09/14 06:31:26;;;;;;;11.50;5.00;;;;;;;;;;4917337;29;20056;-76
2023/09/14 06:33:52;;;;;;;11.10;5.10;;;;;;;;;;4925070;29;20055;-75
2023/09/14 06:36:18;;;;;;;18.33;5.65;;;;;;;;;;4935789;29;20047;-75
2023/09/14 06:38:45;;;;;;;;;;;;;;;;;;4934919;29;20071;-75
2023/09/14 06:41:12;;;;;;;16.15;4.32;;;;;;;;;;4929131;29;19983;-75
2023/09/14 06:43:39;;;;;;;11.98;4.30;;;;;;;;;;4907479;29;20052;-74
2023/09/14 06:46:06;;;;;;;10.00;4.43;;;;;;;;;;4934587;29;20047;-73
2023/09/14 06:48:32;;;;;;;;;;;;;;;;;;4937004;29;20051;-74
2023/09/14 06:50:58;;;;;;;9.93;4.20;;;;;;;;;;4911501;29;19970;-75
2023/09/14 06:53:24;;;;;;;;;;;;;;;;;;4920017;29;20123;-75
2023/09/14 06:55:50;;;;;;;11.88;5.05;;;;;;;;;;4935047;29;19923;-74
2023/09/14 06:58:16;;;;;;;10.82;4.60;;;;;;;;;;4908497;29;20056;-82
2023/09/14 07:00:43;;;;;;;12.70;4.82;;;;;;;;;;4899394;29;20093;-76
2023/09/14 07:03:09;;;;;;;14.05;4.40;;;;;;;;;;4927082;29;20059;-75
2023/09/14 07:05:36;;;;;;;;;;;;;;;;;;4915837;29;20520;-76
2023/09/14 07:08:03;;;;;;;11.13;4.82;;;;;;;;;;4901012;29;20266;-76
2023/09/14 07:10:29;;;;;;;;;;;;;;;;;;4934899;29;20039;-76
2023/09/14 07:12:55;;;;;;;12.20;4.63;;;;;;;;;;4935013;29;20364;-78
2023/09/14 07:15:21;;;;;;;;;;;;;;;;;;4921423;29;20052;-75
2023/09/14 07:17:48;;;;;;;10.18;4.72;;;;;;;;;;4916830;29;20371;-77
2023/09/14 07:20:14;;;;;;;11.35;4.53;;;;;;;;;;4913858;29;20050;-74
2023/09/14 07:22:40;;;;;;;;;;;;;;;;;;4920552;29;20077;-76
2023/09/14 07:25:08;;;;;;;14.10;6.20;;;12.50;99.90;;;;;;4934205;29;20377;-76
2023/09/14 07:27:34;;;;;;;19.60;6.25;;;12.70;99.90;;;;;;4935952;29;20052;-78
2023/09/14 07:29:59;;;;;;;16.83;7.10;;;12.80;99.90;;;;;;4896062;29;20496;-79
2023/09/14 07:32:25;;;;;;;10.50;5.13;;;12.90;99.90;;;;;;4919020;29;20406;-76
2023/09/14 07:34:51;;;;;;;12.77;4.70;;;13.00;99.90;;;;;;4929366;29;20047;-80
2023/09/14 07:37:16;;;;;;;13.63;4.93;;;13.00;99.90;;;;;;4904711;29;20540;-78
2023/09/14 07:39:43;;;;;;;17.90;4.68;;;13.10;99.90;;;;;;4907462;29;20462;-79
2023/09/14 07:42:09;;;;;;;10.77;5.10;;;13.10;99.90;;;;;;4932637;29;20047;-78
2023/09/14 07:44:35;;;;;;;12.93;5.30;;;13.20;99.90;;;;;;4929865;29;20043;-77
2023/09/14 07:47:01;;;;;;;16.77;6.55;;;13.30;99.90;;;;;;4921320;29;20118;-78
2023/09/14 07:49:26;;;;;;;12.00;6.75;;;13.40;99.90;;;;;;4940048;29;20150;-78
2023/09/14 07:51:52;;;;;;;17.38;6.10;;;13.50;99.90;;;;;;4928522;29;20059;-80
2023/09/14 07:54:18;;;;;;;15.02;5.80;;;13.50;99.90;;;;;;4927457;29;20039;-79
2023/09/14 07:56:43;;;;;;;12.27;5.20;;;13.60;99.90;;;;;;4928696;29;20067;-78
2023/09/14 07:59:09;;;;;;;9.45;4.95;;;13.70;99.90;;;;;;4899290;29;20044;-80
2023/09/14 08:01:35;;;;;;;;;;;13.80;99.90;;;;;;4907431;29;20055;-78
2023/09/14 08:04:02;;;;;;;10.70;5.10;;;13.90;99.90;;;;;;4931884;29;19923;-79
2023/09/14 08:06:28;;;;;;;15.10;5.07;;;14.00;99.90;;;;;;4919616;29;20047;-83
2023/09/14 08:08:55;;;;;;;10.25;4.50;;;14.10;99.90;;;;;;4921726;29;20047;-79
2023/09/14 08:11:21;;;;;;;12.45;4.22;;;14.20;99.90;;;;;;4938964;29;20117;-78
2023/09/14 08:13:46;;;;;;;14.45;4.90;;;14.20;99.90;;;;;;4915141;29;20187;-78
2023/09/14 08:16:12;;;;;;;11.48;4.40;;;14.30;99.90;;;;;;4925841;29;20066;-79
2023/09/14 08:18:38;;;;;;;14.25;4.20;;;14.30;99.90;;;;;;4883701;29;20089;-77
2023/09/14 08:21:03;;;;;;;;;;;14.40;99.90;;;;;;4890628;29;20052;-77
2023/09/14 08:23:29;;;;;;;10.75;2.78;;;14.40;99.90;;;;;;4930500;29;19923;-77
2023/09/14 08:25:54;;;;;;;;;;;14.50;99.90;;;;;;4934570;29;20048;-77
2023/09/14 08:28:21;;;;;;;11.63;2.55;;;;;;;;;;4916750;29;20013;-76
2023/09/14 08:30:48;;;;;;;9.85;2.33;;;;;;;;;;4912577;29;20129;-77
2023/09/14 08:33:14;;;;;;;9.27;2.63;;;;;;;;;;4906847;29;20092;-77
2023/09/14 08:35:40;;;;;;;;;;;;;;;;;;4922143;29;20405;-77
2023/09/14 08:38:07;;;;;;;6.28;2.03;;;;;;;;;;4928887;29;20448;-77
2023/09/14 08:40:34;;;;;;;15.48;2.30;;;;;;;;;;4909162;29;20080;-77
2023/09/14 08:43:01;;;;;;;8.40;2.38;;;;;;;;;;4913923;29;20046;-78
2023/09/14 08:45:31;;;;;;;9.73;1.85;;;;;;;;;;4927394;29;20630;-77
2023/09/14 08:47:57;;;;;;;9.45;2.00;;;;;;;;;;4931265;29;20489;-77
2023/09/14 08:50:25;;;;;;;7.05;1.63;;;;;;;;;;4907814;29;20150;-77
2023/09/14 08:52:51;;;;;;;7.15;1.55;;;;;;;;;;4924714;29;20059;-76
2023/09/14 08:55:18;;;;;;;9.95;2.00;;;;;;;;;;4916797;29;20489;-77
2023/09/14 08:57:45;;;;;;;7.15;1.70;;;;;;;;;;4932166;29;20396;-77
2023/09/14 09:00:15;;;;;;;7.63;1.73;;;;;;;;;;4912195;29;20075;-76
2023/09/14 09:02:45;;;;;;;8.02;1.75;;;;;;;;;;4915860;29;20125;-76
2023/09/14 09:05:12;;;;;;;10.25;2.20;;;;;;;;;;4932381;29;20062;-77
2023/09/14 09:07:42;;;;;;;6.05;1.83;;;;;;;;;;4917578;29;20047;-77
2023/09/14 09:10:16;;;;;;;7.93;1.80;;;;;;;;;;4899982;29;20200;-77
2023/09/14 09:12:43;;;;;;;8.90;1.85;;;;;;;;;;4913527;29;20047;-70
2023/09/14 09:15:10;;;;;;;12.82;2.30;;;;;;;;;;4915280;29;20083;-76
2023/09/14 09:17:40;;;;;;;8.55;2.03;;;;;;;;;;4933572;29;20055;-75
2023/09/14 09:20:22;;;;;;;8.02;2.08;;;;;;;;;;4912243;29;20407;-76
2023/09/14 09:22:50;;;;;;;9.43;2.10;;;;;;;;;;4923129;29;20064;-74
2023/09/14 09:25:17;;;;;;;3.90;1.77;;;;;;;;;;4913558;29;20096;-74
2023/09/14 09:27:44;;;;;;;10.07;1.70;;;;;;;;;;4921247;29;20048;-74
2023/09/14 09:30:10;;;;;;;6.63;1.75;;;;;;;;;;4907408;29;20118;-75
2023/09/14 09:32:39;;;;;;;6.50;1.70;;;;;;;;;;4932320;29;20058;-71
2023/09/14 09:35:21;;;;;;;8.38;2.25;;;;;;;;;;4930651;29;20057;-71
2023/09/14 09:37:48;;;;;;;9.85;2.10;;;;;;;;;;4933316;29;20051;-69
2023/09/14 09:40:15;;;;;;;8.95;2.00;;;;;;;;;;4932999;29;20051;-72
2023/09/14 09:42:42;;;;;;;8.25;1.83;;;;;;;;;;4917097;29;20047;-73
2023/09/14 09:45:09;;;;;;;9.38;2.03;;;;;;;;;;4929743;29;20482;-75
2023/09/14 09:47:35;;;;;;;10.65;1.80;;;;;;;;;;4932576;29;20048;-73
2023/09/14 09:50:02;;;;;;;10.00;2.17;;;;;;;;;;4916842;29;20055;-75
2023/09/14 09:52:32;;;;;;;9.90;2.10;;;;;;;;;;4914555;29;20233;-74
2023/09/14 09:54:58;;;;;;;8.88;1.80;;;;;;;;;;4920139;29;20044;-75
2023/09/14 09:57:24;;;;;;;;;;;;;;;;;;4924335;29;20492;-74
2023/09/14 09:59:50;;;;;;;9.45;2.05;;;;;;;;;;4933230;29;19923;-74
2023/09/14 10:02:17;;;;;;;;;;;;;;;;;;4932063;29;20043;-74
2023/09/14 10:04:52;;;;;;;13.27;2.38;;;;;;;;;;4921152;29;19922;-74
2023/09/14 10:07:22;;;;;;;6.60;1.67;;;;;;;;;;4935354;29;20051;-74
2023/09/14 10:09:51;;;;;;;6.70;1.70;;;;;;;;;;4934487;29;20051;-74
2023/09/14 10:12:18;;;;;;;10.32;2.00;;;;;;;;;;4935976;29;20051;-74
2023/09/14 10:14:45;;;;;;;7.93;2.05;;;;;;;;;;4935873;29;20056;-74
2023/09/14 10:17:12;;;;;;;16.75;2.10;;;;;;;;;;4917579;29;20051;-79
2023/09/14 10:19:39;;;;;;;6.25;1.90;;;;;;;;;;4907314;29;20047;-76
2023/09/14 10:22:06;;;;;;;7.43;1.83;;;;;;;;;;4936214;29;20490;-76
2023/09/14 10:24:32;;;;;;;7.40;1.48;;;;;;;;;;4929497;29;20134;-75
2023/09/14 10:26:59;;;;;;;6.25;1.73;;;;;;;;;;4903874;29;20055;-69
2023/09/14 10:29:26;;;;;;;8.27;2.15;;;;;;;;;;4935911;29;20091;-68
2023/09/14 10:31:53;;;;;;;7.70;1.90;;;;;;;;;;4927630;29;20056;-68
2023/09/14 10:34:20;;;;;;;6.65;2.00;;;;;;;;;;4918434;29;20134;-68
2023/09/14 10:36:46;;;;;;;6.03;1.98;;;;;;;;;;4931002;29;20098;-72
2023/09/14 10:39:16;;;;;;;7.05;2.10;;;;;;;;;;4905368;29;20115;-82
2023/09/14 10:41:42;;;;;;;11.15;2.17;;;;;;;;;;4920842;29;20047;-80
2023/09/14 10:44:08;;;;;;;;;;;;;;;;;;4935093;29;20040;-71
2023/09/14 10:46:41;;;;;;;5.03;1.90;;;;;;;;;;4936410;29;20411;-77
2023/09/14 10:49:07;;;;;;;11.43;2.92;;;;;;;;;;4917517;29;20048;-76
2023/09/14 10:51:33;;;;;;;8.63;2.00;;;;;;;;;;4926042;29;20060;-75
2023/09/14 10:53:59;;;;;;;;;;;;;;;;;;4934694;29;20501;-79
2023/09/14 10:56:33;;;;;;;7.43;1.90;;;;;;;;;;4941743;29;19923;-78
2023/09/14 10:59:08;;;;;;;9.35;1.90;;;;;;;;;;4913008;29;20040;-79
2023/09/14 11:01:44;;;;;;;9.52;2.35;;;;;;;;;;4928749;29;20507;-78
2023/09/14 11:04:12;;;;;;;;;;;;;;;;;;4949057;29;20114;-71
2023/09/14 11:06:37;;;;;;;;;;;;;;;;;;4932827;29;20016;-78
2023/09/14 11:09:05;;;;;;;14.20;2.85;;;;;;;;;;4928252;29;19982;-79
2023/09/14 11:11:42;;;;;;;5.32;1.60;;;;;;;;;;4904328;29;20055;-78
2023/09/14 11:14:09;;;;;;;8.05;1.70;;;;;;;;;;4917807;29;20047;-79
2023/09/14 11:16:42;;;;;;;11.00;2.40;;;;;;;;;;4920722;29;20055;-80
2023/09/14 11:19:08;;;;;;;9.18;2.60;;;;;;;;;;4911834;29;20058;-79
2023/09/14 11:21:34;;;;;;;6.70;2.05;;;;;;;;;;4923259;29;20482;-81
2023/09/14 11:24:01;;;;;;;;;;;;;;;;;;4913589;29;20043;-82
2023/09/14 11:26:34;;;;;;;7.10;2.03;;;;;;;;;;4935018;29;20384;-81
2023/09/14 11:29:00;;;;;;;5.57;2.30;;;;;;;;;;4915843;29;20043;-80
2023/09/14 11:31:30;;;;;;;6.60;2.17;;;;;;;;;;4913678;29;20145;-78
2023/09/14 11:33:57;;;;;;;8.07;2.10;;;;;;;;;;4924764;29;20052;-82
2023/09/14 11:36:28;;;;;;;8.75;2.17;;;;;;;;;;4934942;29;20099;-80
2023/09/14 11:38:54;;;;;;;7.57;2.00;;;;;;;;;;4922791;29;20083;-80
2023/09/14 11:41:36;;;;;;;7.47;1.88;;;;;;;;;;4903248;29;20387;-83
2023/09/14 11:44:04;;;;;;;7.78;1.95;;;;;;;;;;4922129;29;20052;-80
2023/09/14 11:46:30;;;;;;;8.05;2.00;;;;;;;;;;4928123;29;20054;-80
2023/09/14 11:48:56;;;;;;;9.10;2.30;;;;;;;;;;4910497;29;20087;-80
2023/09/14 11:51:25;;;;;;;7.43;2.00;;;;;;;;;;4910419;29;20063;-81
2023/09/14 11:53:55;;;;;;;8.07;2.25;;;;;;;;;;4934085;29;20055;-80
2023/09/14 11:56:21;;;;;;;9.70;2.17;;;;;;;;;;4919146;29;20058;-80
2023/09/14 11:58:47;;;;;;;6.63;2.10;;;;;;;;;;4933925;29;20051;-80
2023/09/14 12:01:13;;;;;;;6.65;2.00;;;;;;;;;;4915783;29;20052;-80
2023/09/14 12:03:39;;;;;;;8.95;2.00;;;;;;;;;;4918759;29;20059;-80
2023/09/14 12:06:06;;;;;;;7.10;1.95;;;;;;;;;;4934871;29;20058;-80
2023/09/14 12:08:32;;;;;;;6.70;2.20;;;;;;;;;;4917518;29;20387;-81
2023/09/14 12:10:58;;;;;;;6.35;2.20;;;;;;;;;;4918805;29;20054;-80
2023/09/14 12:13:24;;;;;;;9.60;2.05;;;;;;;;;;4899247;29;20143;-81
2023/09/14 12:16:01;;;;;;;4.43;1.98;;;;;;;;;;4917525;29;20047;-81
2023/09/14 12:18:43;;;;;;;6.68;1.80;;;;;;;;;;4905423;29;20135;-81
2023/09/14 12:21:09;;;;;;;7.22;1.92;;;;;;;;;;4919123;29;20044;-81
2023/09/14 12:23:40;;;;;;;4.90;1.75;;;;;;;;;;4917816;29;20079;-80
2023/09/14 12:26:10;;;;;;;5.85;1.95;;;;;;;;;;4915096;29;20056;-80
2023/09/14 12:28:36;;;;;;;5.78;2.35;;;;;;;;;;4914465;29;20051;-80
2023/09/14 12:31:02;;;;;;;7.72;2.20;;;;;;;;;;4911370;29;20137;-80
2023/09/14 12:33:29;;;;;;;7.80;2.13;;;;;;;;;;4918608;29;20062;-81
2023/09/14 12:35:56;;;;;;;8.73;2.10;;;;;;;;;;4918690;29;20055;-80
2023/09/14 12:38:23;;;;;;;8.38;2.00;;;;;;;;;;4909661;29;20494;-80
2023/09/14 12:40:51;;;;;;;11.30;2.35;;;;;;;;;;4899719;29;20047;-80
2023/09/14 12:43:18;;;;;;;9.80;1.95;;;;;;;;;;4919983;29;20044;-80
2023/09/14 12:45:44;;;;;;;7.38;2.20;;;;;;;;;;4933650;29;20048;-80
2023/09/14 12:48:10;;;;;;;6.88;2.08;;;;;;;;;;4918744;29;20126;-80
2023/09/14 12:50:36;;;;;;;7.68;2.15;;;;;;;;;;4933578;29;20060;-80
2023/09/14 12:53:07;;;;;;;9.00;2.13;;;;;;;;;;4933348;29;20059;-80
2023/09/14 12:55:38;;;;;;;7.28;1.73;;;;;;;;;;4933561;29;20048;-80
2023/09/14 12:58:04;;;;;;;6.00;2.08;;;;;;;;;;4917251;29;20083;-80
2023/09/14 13:00:33;;;;;;;5.15;1.95;;;;;;;;;;4933315;29;20080;-80
2023/09/14 13:02:59;;;;;;;6.95;2.03;;;;;;;;;;4918110;29;20051;-80
2023/09/14 13:05:27;;;;;;;7.85;2.40;;;;;;;;;;4915646;29;20044;-80
2023/09/14 13:07:59;;;;;;;6.05;2.17;;;;;;;;;;4899035;29;20123;-79
2023/09/14 13:10:26;;;;;;;6.72;2.13;;;;;;;;;;4899193;29;20170;-80
2023/09/14 13:12:57;;;;;;;7.38;2.20;;;;;;;;;;4898525;29;20196;-80
2023/09/14 13:15:24;;;;;;;6.88;2.20;;;;;;;;;;4914182;29;20091;-80
2023/09/14 13:17:54;;;;;;;9.20;2.10;;;;;;;;;;4920535;29;20111;-81
2023/09/14 13:20:20;;;;;;;5.90;2.08;;;;;;;;;;4901538;29;20108;-80
2023/09/14 13:22:46;;;;;;;7.15;2.25;;;;;;;;;;4917578;29;20085;-80
2023/09/14 13:25:13;;;;;;;6.00;2.25;;;;;;;;;;4902805;29;20056;-80
2023/09/14 13:27:40;;;;;;;6.85;2.22;;;;;;;;;;4913991;29;20102;-80
2023/09/14 13:30:10;;;;;;;8.00;2.42;;;;;;;;;;4897039;29;20048;-83
2023/09/14 13:32:38;;;;;;;9.80;2.55;;;;;;;;;;4927070;29;20456;-79
2023/09/14 13:35:04;;;;;;;8.30;2.30;;;;;;;;;;4933741;29;20055;-80
2023/09/14 13:37:30;;;;;;;7.72;2.15;;;;;;;;;;4935231;29;20040;-82
2023/09/14 13:39:56;;;;;;;6.60;1.95;;;;;;;;;;4924050;29;20122;-77
2023/09/14 13:42:22;;;;;;;7.07;2.50;;;;;;;;;;4904978;29;20054;-79
2023/09/14 13:44:48;;;;;;;7.38;2.45;;;;;;;;;;4910587;29;20044;-79
2023/09/14 13:47:14;;;;;;;5.50;1.77;;;;;;;;;;4938799;29;20098;-79
2023/09/14 13:49:40;;;;;;;8.50;2.30;;;;;;;;;;4923476;29;20055;-79
2023/09/14 13:52:07;;;;;;;5.90;2.00;;;;;;;;;;4939378;29;20044;-70
2023/09/14 13:54:33;;;;;;;9.00;2.17;;;;;;;;;;4940730;29;20056;-79
2023/09/14 13:56:59;;;;;;;6.45;2.17;;;;;;;;;;4907344;29;20056;-79
2023/09/14 13:59:25;;;;;;;7.85;2.33;;;;;;;;;;4919998;29;20509;-71
2023/09/14 14:01:52;;;;;;;5.57;2.10;;;;;;;;;;4904195;29;20055;-73
2023/09/14 14:04:18;;;;;;;7.72;2.25;;;;;;;;;;4922094;29;20048;-74
2023/09/14 14:06:45;;;;;;;9.48;2.45;;;;;;;;;;4926118;29;20047;-77
2023/09/14 14:09:11;;;;;;;7.20;2.20;;;;;;;;;;4920495;29;20059;-85
2023/09/14 14:11:37;;;;;;;9.52;2.65;;;;;;;;;;4905019;29;20051;-72
2023/09/14 14:14:04;;;;;;;6.88;2.10;;;;;;;;;;4919501;29;20072;-72
2023/09/14 14:16:30;;;;;;;6.80;2.15;;;;;;;;;;4921282;29;20050;-79
2023/09/14 14:18:57;;;;;;;9.82;2.17;;;;;;;;;;4907845;29;20112;-78
2023/09/14 14:21:29;;;;;;;6.53;2.30;;;;;;;;;;4928968;29;20072;-78
2023/09/14 14:23:55;;;;;;;7.65;2.22;;;;;;;;;;4904952;29;20386;-78
2023/09/14 14:26:21;;;;;;;6.05;2.15;;;;;;;;;;4922431;29;20055;-78
2023/09/14 14:28:47;;;;;;;9.40;2.40;;;;;;;;;;4906614;29;20048;-79
2023/09/14 14:31:13;;;;;;;9.10;2.20;;;;;;;;;;4938304;29;22005;-78
2023/09/14 14:33:40;;;;;;;7.10;2.60;;;;;;;;;;4931824;29;20099;-78
2023/09/14 14:36:06;;;;;;;6.25;1.98;;;;;;;;;;4918356;29;20116;-78
2023/09/14 14:38:33;;;;;;;6.68;2.03;;;;;;;;;;4888906;29;20111;-72
2023/09/14 14:40:59;;;;;;;7.80;2.42;;;;;;;;;;4920920;29;20052;-71